sensor_id;sensor_type;location;lat;lon;timestamp;pressure;altitude;pressure_sealevel;temperature;humidity
5283;BME280;15376;48.540;9.268;2023-01-01T00:01:54;97839.00;;;9.02;100.00
5283;BME280;15376;48.540;9.268;2023-01-01T00:04:20;97849.78;;;9.09;100.00
5283;BME280;15376;48.540;9.268;2023-01-01T00:06:45;97844.66;;;9.08;100.00
5283;BME280;15376;48.540;9.268;2023-01-01T00:09:10;97839.97;;;8.85;100.00
5283;BME280;15376;48.540;9.268;2023-01-01T00:11:54;97841.81;;;8.77;100.00
5283;BME280;15376;48.540;9.268;2023-01-01T00:14:20;97848.25;;;8.74;100.00
5283;BME280;15376;48.540;9.268;2023-01-01T00:16:45;97852.22;;;8.70;100.00
5283;BME280;15376;48.540;9.268;2023-01-01T00:19:11;97858.16;;;8.72;100.00
5283;BME280;15376;48.540;9.268;2023-01-01T00:21:36;97861.81;;;8.71;100.00
5283;BME280;15376;48.540;9.268;2023-01-01T00:24:01;97849.88;;;8.67;100.00
5283;BME280;15376;48.540;9.268;2023-01-01T00:26:27;97863.63;;;8.87;100.00
5283;BME280;15376;48.540;9.268;2023-01-01T00:28:52;97851.88;;;8.81;100.00
5283;BME280;15376;48.540;9.268;2023-01-01T00:31:20;97858.88;;;8.98;100.00
5283;BME280;15376;48.540;9.268;2023-01-01T00:33:49;97857.56;;;9.02;100.00
5283;BME280;15376;48.540;9.268;2023-01-01T00:36:16;97858.03;;;8.98;100.00
5283;BME280;15376;48.540;9.268;2023-01-01T00:38:43;97845.94;;;8.87;100.00
5283;BME280;15376;48.540;9.268;2023-01-01T00:41:09;97823.56;;;8.65;100.00
5283;BME280;15376;48.540;9.268;2023-01-01T00:43:35;97846.88;;;8.62;100.00
5283;BME280;15376;48.540;9.268;2023-01-01T00:46:00;97822.34;;;8.44;100.00
5283;BME280;15376;48.540;9.268;2023-01-01T00:48:26;97844.91;;;8.64;100.00
5283;BME280;15376;48.540;9.268;2023-01-01T00:50:52;97845.88;;;8.55;100.00
5283;BME280;15376;48.540;9.268;2023-01-01T00:53:19;97828.66;;;8.51;100.00
5283;BME280;15376;48.540;9.268;2023-01-01T00:55:46;97833.63;;;8.54;100.00
5283;BME280;15376;48.540;9.268;2023-01-01T00:58:12;97831.13;;;8.52;100.00
5283;BME280;15376;48.540;9.268;2023-01-01T01:00:38;97832.94;;;8.44;100.00
5283;BME280;15376;48.540;9.268;2023-01-01T01:03:03;97829.81;;;8.48;100.00
5283;BME280;15376;48.540;9.268;2023-01-01T01:05:30;97832.78;;;8.53;100.00
5283;BME280;15376;48.540;9.268;2023-01-01T01:07:56;97832.78;;;8.37;100.00
5283;BME280;15376;48.540;9.268;2023-01-01T01:10:22;97826.38;;;8.22;100.00
5283;BME280;15376;48.540;9.268;2023-01-01T01:12:50;97825.91;;;8.26;100.00
5283;BME280;15376;48.540;9.268;2023-01-01T01:15:15;97830.38;;;8.26;100.00
5283;BME280;15376;48.540;9.268;2023-01-01T01:17:41;97825.44;;;8.31;100.00
5283;BME280;15376;48.540;9.268;2023-01-01T01:20:07;97826.66;;;8.37;100.00
5283;BME280;15376;48.540;9.268;2023-01-01T01:22:33;97830.13;;;8.45;100.00
5283;BME280;15376;48.540;9.268;2023-01-01T01:25:01;97827.97;;;8.49;100.00
5283;BME280;15376;48.540;9.268;2023-01-01T01:27:27;97828.00;;;8.57;100.00
5283;BME280;15376;48.540;9.268;2023-01-01T01:29:53;97825.72;;;8.62;100.00
5283;BME280;15376;48.540;9.268;2023-01-01T01:32:19;97810.78;;;8.53;100.00
5283;BME280;15376;48.540;9.268;2023-01-01T01:34:44;97832.84;;;8.69;100.00
5283;BME280;15376;48.540;9.268;2023-01-01T01:37:10;97821.75;;;8.66;100.00
5283;BME280;15376;48.540;9.268;2023-01-01T01:39:36;97834.84;;;8.84;100.00
5283;BME280;15376;48.540;9.268;2023-01-01T01:42:01;97833.03;;;8.92;100.00
5283;BME280;15376;48.540;9.268;2023-01-01T01:49:53;97838.53;;;10.03;100.00
5283;BME280;15376;48.540;9.268;2023-01-01T01:52:19;97831.03;;;10.31;100.00
5283;BME280;15376;48.540;9.268;2023-01-01T01:54:45;97826.50;;;10.93;100.00
5283;BME280;15376;48.540;9.268;2023-01-01T01:57:11;97814.94;;;11.47;100.00
5283;BME280;15376;48.540;9.268;2023-01-01T01:59:41;97822.09;;;12.28;100.00
5283;BME280;15376;48.540;9.268;2023-01-01T02:02:20;97825.63;;;12.50;100.00
5283;BME280;15376;48.540;9.268;2023-01-01T02:04:47;97813.56;;;12.68;100.00
5283;BME280;15376;48.540;9.268;2023-01-01T02:07:13;97808.16;;;12.83;100.00
5283;BME280;15376;48.540;9.268;2023-01-01T02:09:39;97831.28;;;12.97;100.00
5283;BME280;15376;48.540;9.268;2023-01-01T02:12:05;97832.53;;;13.16;100.00
5283;BME280;15376;48.540;9.268;2023-01-01T02:14:31;97838.69;;;13.17;100.00
5283;BME280;15376;48.540;9.268;2023-01-01T02:17:05;97826.28;;;13.09;100.00
5283;BME280;15376;48.540;9.268;2023-01-01T02:19:59;97838.97;;;13.28;100.00
5283;BME280;15376;48.540;9.268;2023-01-01T02:31:14;97826.22;;;13.45;98.73
5283;BME280;15376;48.540;9.268;2023-01-01T02:33:41;97833.66;;;13.50;98.61
5283;BME280;15376;48.540;9.268;2023-01-01T02:36:10;97824.94;;;13.20;99.90
5283;BME280;15376;48.540;9.268;2023-01-01T02:38:42;97841.06;;;13.12;100.00
5283;BME280;15376;48.540;9.268;2023-01-01T02:41:18;97832.56;;;13.23;100.00
5283;BME280;15376;48.540;9.268;2023-01-01T02:43:44;97809.44;;;12.87;100.00
5283;BME280;15376;48.540;9.268;2023-01-01T02:46:10;97824.75;;;12.79;100.00
5283;BME280;15376;48.540;9.268;2023-01-01T02:54:38;97822.03;;;12.57;100.00
5283;BME280;15376;48.540;9.268;2023-01-01T02:57:09;97821.28;;;12.49;100.00
5283;BME280;15376;48.540;9.268;2023-01-01T03:00:00;97821.78;;;12.38;100.00
5283;BME280;15376;48.540;9.268;2023-01-01T03:11:11;97848.75;;;11.76;100.00
5283;BME280;15376;48.540;9.268;2023-01-01T03:14:07;97848.69;;;11.46;100.00
5283;BME280;15376;48.540;9.268;2023-01-01T03:19:16;97850.47;;;10.85;100.00
5283;BME280;15376;48.540;9.268;2023-01-01T03:24:23;97855.63;;;10.56;100.00
5283;BME280;15376;48.540;9.268;2023-01-01T03:26:54;97857.47;;;10.47;100.00
5283;BME280;15376;48.540;9.268;2023-01-01T03:29:22;97861.97;;;10.47;100.00
5283;BME280;15376;48.540;9.268;2023-01-01T03:31:50;97857.66;;;10.46;100.00
5283;BME280;15376;48.540;9.268;2023-01-01T03:34:22;97862.66;;;10.41;100.00
5283;BME280;15376;48.540;9.268;2023-01-01T03:36:54;97850.94;;;10.27;100.00
5283;BME280;15376;48.540;9.268;2023-01-01T03:39:37;97864.72;;;10.22;100.00
5283;BME280;15376;48.540;9.268;2023-01-01T03:42:21;97860.75;;;10.02;100.00
5283;BME280;15376;48.540;9.268;2023-01-01T03:45:02;97865.06;;;10.03;100.00
5283;BME280;15376;48.540;9.268;2023-01-01T03:47:29;97862.25;;;10.04;100.00
5283;BME280;15376;48.540;9.268;2023-01-01T03:49:56;97863.47;;;9.78;100.00
5283;BME280;15376;48.540;9.268;2023-01-01T03:52:47;97859.50;;;9.74;100.00
5283;BME280;15376;48.540;9.268;2023-01-01T03:55:23;97871.44;;;9.61;100.00
5283;BME280;15376;48.540;9.268;2023-01-01T03:58:12;97870.97;;;9.42;100.00
5283;BME280;15376;48.540;9.268;2023-01-01T04:00:49;97872.63;;;9.43;100.00
5283;BME280;15376;48.540;9.268;2023-01-01T04:03:22;97872.78;;;9.33;100.00
5283;BME280;15376;48.540;9.268;2023-01-01T04:05:49;97873.78;;;9.24;100.00
5283;BME280;15376;48.540;9.268;2023-01-01T04:08:15;97870.81;;;9.19;100.00
5283;BME280;15376;48.540;9.268;2023-01-01T04:10:43;97865.66;;;8.93;100.00
5283;BME280;15376;48.540;9.268;2023-01-01T04:13:10;97875.72;;;8.89;100.00
5283;BME280;15376;48.540;9.268;2023-01-01T04:15:35;97853.19;;;8.69;100.00
5283;BME280;15376;48.540;9.268;2023-01-01T04:18:01;97869.28;;;8.76;100.00
5283;BME280;15376;48.540;9.268;2023-01-01T04:20:27;97853.78;;;8.47;100.00
5283;BME280;15376;48.540;9.268;2023-01-01T04:22:56;97873.53;;;8.60;100.00
5283;BME280;15376;48.540;9.268;2023-01-01T04:25:22;97838.16;;;8.27;100.00
5283;BME280;15376;48.540;9.268;2023-01-01T04:27:48;97873.66;;;8.51;100.00
5283;BME280;15376;48.540;9.268;2023-01-01T04:30:14;97877.75;;;8.45;100.00
5283;BME280;15376;48.540;9.268;2023-01-01T04:32:39;97889.16;;;8.38;100.00
5283;BME280;15376;48.540;9.268;2023-01-01T04:35:07;97876.53;;;8.31;100.00
5283;BME280;15376;48.540;9.268;2023-01-01T04:37:35;97882.78;;;8.22;100.00
5283;BME280;15376;48.540;9.268;2023-01-01T04:40:01;97888.53;;;8.18;100.00
5283;BME280;15376;48.540;9.268;2023-01-01T04:42:27;97894.28;;;8.13;100.00
5283;BME280;15376;48.540;9.268;2023-01-01T04:44:52;97884.66;;;8.04;100.00
5283;BME280;15376;48.540;9.268;2023-01-01T04:47:18;97895.88;;;7.98;100.00
5283;BME280;15376;48.540;9.268;2023-01-01T04:49:43;97877.00;;;7.93;100.00
5283;BME280;15376;48.540;9.268;2023-01-01T04:52:08;97903.31;;;8.02;100.00
5283;BME280;15376;48.540;9.268;2023-01-01T04:54:34;97878.16;;;7.90;100.00
5283;BME280;15376;48.540;9.268;2023-01-01T04:56:59;97908.13;;;7.99;100.00
5283;BME280;15376;48.540;9.268;2023-01-01T04:59:24;97907.47;;;8.05;100.00
5283;BME280;15376;48.540;9.268;2023-01-01T05:01:50;97909.13;;;8.06;100.00
5283;BME280;15376;48.540;9.268;2023-01-01T05:04:16;97905.72;;;8.14;100.00
5283;BME280;15376;48.540;9.268;2023-01-01T05:06:41;97918.09;;;8.13;100.00
5283;BME280;15376;48.540;9.268;2023-01-01T05:09:10;97909.88;;;7.90;100.00
5283;BME280;15376;48.540;9.268;2023-01-01T05:11:36;97917.03;;;7.98;100.00
5283;BME280;15376;48.540;9.268;2023-01-01T05:14:02;97905.22;;;7.84;100.00
5283;BME280;15376;48.540;9.268;2023-01-01T05:16:33;97905.09;;;7.68;100.00
5283;BME280;15376;48.540;9.268;2023-01-01T05:18:59;97918.16;;;7.69;100.00
5283;BME280;15376;48.540;9.268;2023-01-01T05:21:30;97905.09;;;7.68;100.00
5283;BME280;15376;48.540;9.268;2023-01-01T05:23:58;97895.84;;;7.46;100.00
5283;BME280;15376;48.540;9.268;2023-01-01T05:26:25;97925.00;;;7.54;100.00
5283;BME280;15376;48.540;9.268;2023-01-01T05:28:52;97919.06;;;7.60;100.00
5283;BME280;15376;48.540;9.268;2023-01-01T05:31:20;97929.56;;;7.70;100.00
5283;BME280;15376;48.540;9.268;2023-01-01T05:33:46;97923.13;;;7.73;100.00
5283;BME280;15376;48.540;9.268;2023-01-01T05:36:33;97921.16;;;7.75;100.00
5283;BME280;15376;48.540;9.268;2023-01-01T05:38:59;97910.06;;;7.71;100.00
5283;BME280;15376;48.540;9.268;2023-01-01T05:41:25;97921.16;;;7.75;100.00
5283;BME280;15376;48.540;9.268;2023-01-01T05:43:51;97919.72;;;7.80;100.00
5283;BME280;15376;48.540;9.268;2023-01-01T05:46:22;97920.19;;;7.76;100.00
5283;BME280;15376;48.540;9.268;2023-01-01T05:48:47;97916.91;;;7.82;100.00
5283;BME280;15376;48.540;9.268;2023-01-01T05:51:19;97935.28;;;7.83;100.00
5283;BME280;15376;48.540;9.268;2023-01-01T05:53:45;97904.88;;;7.61;100.00
5283;BME280;15376;48.540;9.268;2023-01-01T05:56:11;97931.34;;;7.87;100.00
5283;BME280;15376;48.540;9.268;2023-01-01T05:58:37;97937.56;;;7.78;100.00
5283;BME280;15376;48.540;9.268;2023-01-01T06:01:14;97936.28;;;7.64;100.00
5283;BME280;15376;48.540;9.268;2023-01-01T06:03:40;97937.91;;;7.57;100.00
5283;BME280;15376;48.540;9.268;2023-01-01T06:06:14;97945.38;;;7.44;100.00
5283;BME280;15376;48.540;9.268;2023-01-01T06:08:40;97947.63;;;7.39;100.00
5283;BME280;15376;48.540;9.268;2023-01-01T06:11:08;97944.84;;;7.41;100.00
5283;BME280;15376;48.540;9.268;2023-01-01T06:13:35;97953.16;;;7.46;100.00
5283;BME280;15376;48.540;9.268;2023-01-01T06:16:01;97947.34;;;7.42;100.00
5283;BME280;15376;48.540;9.268;2023-01-01T06:18:31;97960.16;;;7.37;100.00
5283;BME280;15376;48.540;9.268;2023-01-01T06:21:08;97955.41;;;7.41;100.00
5283;BME280;15376;48.540;9.268;2023-01-01T06:23:34;97956.41;;;7.40;100.00
5283;BME280;15376;48.540;9.268;2023-01-01T06:26:12;97953.16;;;7.28;100.00
5283;BME280;15376;48.540;9.268;2023-01-01T06:28:38;97952.38;;;7.00;100.00
5283;BME280;15376;48.540;9.268;2023-01-01T06:31:06;97957.41;;;6.93;100.00
5283;BME280;15376;48.540;9.268;2023-01-01T06:33:31;97937.13;;;6.76;100.00
5283;BME280;15376;48.540;9.268;2023-01-01T06:35:57;97943.38;;;6.75;100.00
5283;BME280;15376;48.540;9.268;2023-01-01T06:38:23;97963.88;;;6.81;100.00
5283;BME280;15376;48.540;9.268;2023-01-01T06:41:18;97960.56;;;6.79;100.00
5283;BME280;15376;48.540;9.268;2023-01-01T06:43:45;97948.66;;;6.75;100.00
5283;BME280;15376;48.540;9.268;2023-01-01T06:48:38;97970.75;;;6.92;100.00
5283;BME280;15376;48.540;9.268;2023-01-01T06:51:09;97974.13;;;6.84;100.00
5283;BME280;15376;48.540;9.268;2023-01-01T06:53:35;97976.34;;;6.89;100.00
5283;BME280;15376;48.540;9.268;2023-01-01T06:56:01;97974.53;;;6.89;100.00
5283;BME280;15376;48.540;9.268;2023-01-01T06:58:26;97974.91;;;6.94;100.00
5283;BME280;15376;48.540;9.268;2023-01-01T07:00:52;97982.69;;;6.96;100.00
5283;BME280;15376;48.540;9.268;2023-01-01T07:03:17;97962.50;;;7.05;100.00
5283;BME280;15376;48.540;9.268;2023-01-01T07:05:43;97969.16;;;7.09;100.00
5283;BME280;15376;48.540;9.268;2023-01-01T07:08:08;97982.94;;;7.20;100.00
5283;BME280;15376;48.540;9.268;2023-01-01T07:10:33;97983.88;;;7.29;100.00
5283;BME280;15376;48.540;9.268;2023-01-01T07:12:58;97970.56;;;7.21;100.00
5283;BME280;15376;48.540;9.268;2023-01-01T07:15:25;97976.38;;;7.24;100.00
5283;BME280;15376;48.540;9.268;2023-01-01T07:17:50;97973.44;;;7.27;100.00
5283;BME280;15376;48.540;9.268;2023-01-01T07:20:16;97972.47;;;7.28;100.00
5283;BME280;15376;48.540;9.268;2023-01-01T07:22:41;97974.97;;;7.30;100.00
5283;BME280;15376;48.540;9.268;2023-01-01T07:25:06;97978.66;;;7.37;100.00
5283;BME280;15376;48.540;9.268;2023-01-01T07:27:32;97951.56;;;7.35;100.00
5283;BME280;15376;48.540;9.268;2023-01-01T07:29:57;97970.81;;;7.45;100.00
5283;BME280;15376;48.540;9.268;2023-01-01T07:32:23;97977.47;;;7.49;100.00
5283;BME280;15376;48.540;9.268;2023-01-01T07:34:48;97977.69;;;7.56;100.00
5283;BME280;15376;48.540;9.268;2023-01-01T07:37:13;97971.94;;;7.60;100.00
5283;BME280;15376;48.540;9.268;2023-01-01T07:39:39;97964.59;;;7.72;100.00
5283;BME280;15376;48.540;9.268;2023-01-01T07:42:04;97975.09;;;7.82;100.00
5283;BME280;15376;48.540;9.268;2023-01-01T07:44:29;97981.13;;;7.92;100.00
5283;BME280;15376;48.540;9.268;2023-01-01T07:47:02;97977.19;;;7.96;100.00
5283;BME280;15376;48.540;9.268;2023-01-01T07:49:28;97975.56;;;8.03;100.00
5283;BME280;15376;48.540;9.268;2023-01-01T07:51:53;97980.59;;;8.14;100.00
5283;BME280;15376;48.540;9.268;2023-01-01T07:54:18;97988.28;;;8.25;100.00
5283;BME280;15376;48.540;9.268;2023-01-01T07:56:44;97981.03;;;8.27;100.00
5283;BME280;15376;48.540;9.268;2023-01-01T07:59:09;97976.56;;;8.28;100.00
5283;BME280;15376;48.540;9.268;2023-01-01T08:01:35;97990.47;;;8.30;100.00
5283;BME280;15376;48.540;9.268;2023-01-01T08:04:01;97984.19;;;8.31;100.00
5283;BME280;15376;48.540;9.268;2023-01-01T08:06:27;97978.16;;;8.39;100.00
5283;BME280;15376;48.540;9.268;2023-01-01T08:08:52;97988.44;;;8.50;100.00
5283;BME280;15376;48.540;9.268;2023-01-01T08:11:17;97991.97;;;8.58;100.00
5283;BME280;15376;48.540;9.268;2023-01-01T08:13:43;97993.56;;;8.77;100.00
5283;BME280;15376;48.540;9.268;2023-01-01T08:16:08;97996.72;;;8.89;100.00
5283;BME280;15376;48.540;9.268;2023-01-01T08:18:34;97993.59;;;8.93;100.00
5283;BME280;15376;48.540;9.268;2023-01-01T08:20:59;98003.25;;;9.02;100.00
5283;BME280;15376;48.540;9.268;2023-01-01T08:23:24;97999.00;;;9.18;100.00
5283;BME280;15376;48.540;9.268;2023-01-01T08:25:50;97998.53;;;9.30;100.00
5283;BME280;15376;48.540;9.268;2023-01-01T08:28:15;98005.00;;;9.36;100.00
5283;BME280;15376;48.540;9.268;2023-01-01T08:30:41;98013.31;;;9.49;100.00
5283;BME280;15376;48.540;9.268;2023-01-01T08:33:06;97999.25;;;9.57;100.00
5283;BME280;15376;48.540;9.268;2023-01-01T08:35:32;98016.31;;;9.79;100.00
5283;BME280;15376;48.540;9.268;2023-01-01T08:38:00;98020.28;;;9.75;100.00
5283;BME280;15376;48.540;9.268;2023-01-01T08:40:25;98010.72;;;9.98;100.00
5283;BME280;15376;48.540;9.268;2023-01-01T08:42:50;98009.34;;;10.10;100.00
5283;BME280;15376;48.540;9.268;2023-01-01T08:45:16;98018.81;;;10.37;100.00
5283;BME280;15376;48.540;9.268;2023-01-01T08:47:42;98008.88;;;10.39;100.00
5283;BME280;15376;48.540;9.268;2023-01-01T08:50:07;98008.03;;;10.30;100.00
5283;BME280;15376;48.540;9.268;2023-01-01T08:52:33;98001.09;;;10.21;100.00
5283;BME280;15376;48.540;9.268;2023-01-01T08:54:58;98012.84;;;10.35;100.00
5283;BME280;15376;48.540;9.268;2023-01-01T08:57:25;98012.34;;;10.31;100.00
5283;BME280;15376;48.540;9.268;2023-01-01T08:59:50;98022.31;;;10.21;100.00
5283;BME280;15376;48.540;9.268;2023-01-01T09:02:15;98033.75;;;9.97;100.00
5283;BME280;15376;48.540;9.268;2023-01-01T09:04:41;98038.88;;;9.83;100.00
5283;BME280;15376;48.540;9.268;2023-01-01T09:07:06;98043.00;;;9.69;100.00
5283;BME280;15376;48.540;9.268;2023-01-01T09:09:31;98041.97;;;9.62;100.00
5283;BME280;15376;48.540;9.268;2023-01-01T09:11:57;98045.97;;;9.58;100.00
5283;BME280;15376;48.540;9.268;2023-01-01T09:14:25;98053.94;;;9.66;100.00
5283;BME280;15376;48.540;9.268;2023-01-01T09:16:51;98056.09;;;9.70;100.00
5283;BME280;15376;48.540;9.268;2023-01-01T09:19:16;98038.06;;;9.90;100.00
5283;BME280;15376;48.540;9.268;2023-01-01T09:21:41;98057.16;;;10.34;100.00
5283;BME280;15376;48.540;9.268;2023-01-01T09:24:07;98052.44;;;10.69;100.00
5283;BME280;15376;48.540;9.268;2023-01-01T09:26:32;98042.16;;;11.13;100.00
5283;BME280;15376;48.540;9.268;2023-01-01T09:28:58;98044.81;;;11.52;100.00
5283;BME280;15376;48.540;9.268;2023-01-01T09:31:23;98037.16;;;11.80;100.00
5283;BME280;15376;48.540;9.268;2023-01-01T09:33:49;98039.28;;;11.85;100.00
5283;BME280;15376;48.540;9.268;2023-01-01T09:36:27;98048.22;;;11.92;100.00
5283;BME280;15376;48.540;9.268;2023-01-01T09:38:53;98044.13;;;12.04;100.00
5283;BME280;15376;48.540;9.268;2023-01-01T09:46:43;98044.28;;;13.22;100.00
5283;BME280;15376;48.540;9.268;2023-01-01T09:49:30;98031.59;;;13.24;100.00
5283;BME280;15376;48.540;9.268;2023-01-01T09:51:58;98032.19;;;13.19;100.00
5283;BME280;15376;48.540;9.268;2023-01-01T09:54:32;98045.91;;;13.52;100.00
5283;BME280;15376;48.540;9.268;2023-01-01T09:57:01;98036.53;;;13.99;99.94
5283;BME280;15376;48.540;9.268;2023-01-01T09:59:28;98029.13;;;14.01;96.68
5283;BME280;15376;48.540;9.268;2023-01-01T10:02:21;98042.50;;;14.22;96.72
5283;BME280;15376;48.540;9.268;2023-01-01T10:05:11;98029.84;;;14.31;96.98
5283;BME280;15376;48.540;9.268;2023-01-01T10:07:47;98024.00;;;14.21;96.32
5283;BME280;15376;48.540;9.268;2023-01-01T10:13:35;98009.44;;;13.59;98.24
5283;BME280;15376;48.540;9.268;2023-01-01T10:18:33;98022.28;;;13.34;100.00
5283;BME280;15376;48.540;9.268;2023-01-01T10:23:33;98026.91;;;13.11;100.00
5283;BME280;15376;48.540;9.268;2023-01-01T10:26:08;98030.53;;;13.18;100.00
5283;BME280;15376;48.540;9.268;2023-01-01T10:29:02;98034.00;;;13.19;100.00
5283;BME280;15376;48.540;9.268;2023-01-01T10:31:34;98028.75;;;13.11;100.00
5283;BME280;15376;48.540;9.268;2023-01-01T10:34:14;98024.34;;;13.18;100.00
5283;BME280;15376;48.540;9.268;2023-01-01T10:36:42;98026.91;;;13.11;100.00
5283;BME280;15376;48.540;9.268;2023-01-01T10:39:15;97976.53;;;12.87;100.00
5283;BME280;15376;48.540;9.268;2023-01-01T10:41:42;98006.41;;;13.12;100.00
5283;BME280;15376;48.540;9.268;2023-01-01T10:44:08;98029.06;;;13.16;100.00
5283;BME280;15376;48.540;9.268;2023-01-01T10:46:36;98013.06;;;13.16;100.00
5283;BME280;15376;48.540;9.268;2023-01-01T10:49:09;98017.91;;;13.12;100.00
5283;BME280;15376;48.540;9.268;2023-01-01T10:51:56;98022.75;;;13.38;100.00
5283;BME280;15376;48.540;9.268;2023-01-01T10:54:37;98014.72;;;13.53;100.00
5283;BME280;15376;48.540;9.268;2023-01-01T10:57:28;98025.06;;;13.62;100.00
5283;BME280;15376;48.540;9.268;2023-01-01T11:00:09;98021.81;;;13.67;100.00
5283;BME280;15376;48.540;9.268;2023-01-01T11:02:34;98021.38;;;13.63;100.00
5283;BME280;15376;48.540;9.268;2023-01-01T11:05:19;98031.44;;;13.83;100.00
5283;BME280;15376;48.540;9.268;2023-01-01T11:07:46;98023.06;;;13.86;99.52
5283;BME280;15376;48.540;9.268;2023-01-01T11:10:20;98015.81;;;13.80;100.00
5283;BME280;15376;48.540;9.268;2023-01-01T11:12:47;97988.97;;;13.66;100.00
5283;BME280;15376;48.540;9.268;2023-01-01T11:15:22;98020.84;;;13.89;98.17
5283;BME280;15376;48.540;9.268;2023-01-01T11:17:49;98012.69;;;13.97;96.16
5283;BME280;15376;48.540;9.268;2023-01-01T11:20:17;98016.19;;;13.98;98.01
5283;BME280;15376;48.540;9.268;2023-01-01T11:22:46;98005.91;;;13.95;99.50
5283;BME280;15376;48.540;9.268;2023-01-01T11:26:05;98016.22;;;14.05;98.97
5283;BME280;15376;48.540;9.268;2023-01-01T11:28:31;98004.88;;;13.96;100.00
5283;BME280;15376;48.540;9.268;2023-01-01T11:31:20;97996.63;;;14.19;97.35
5283;BME280;15376;48.540;9.268;2023-01-01T11:33:53;97982.88;;;13.94;99.77
5283;BME280;15376;48.540;9.268;2023-01-01T11:38:48;97989.38;;;14.34;96.67
5283;BME280;15376;48.540;9.268;2023-01-01T11:41:15;97990.69;;;14.45;96.63
5283;BME280;15376;48.540;9.268;2023-01-01T11:43:44;97976.44;;;14.38;96.73
5283;BME280;15376;48.540;9.268;2023-01-01T11:46:16;97961.00;;;14.33;97.63
5283;BME280;15376;48.540;9.268;2023-01-01T11:48:43;97961.50;;;14.43;99.88
5283;BME280;15376;48.540;9.268;2023-01-01T11:51:10;97940.69;;;14.39;96.70
5283;BME280;15376;48.540;9.268;2023-01-01T11:54:07;97949.88;;;14.57;94.34
5283;BME280;15376;48.540;9.268;2023-01-01T11:56:33;97936.34;;;14.65;93.75
5283;BME280;15376;48.540;9.268;2023-01-01T11:59:04;97932.19;;;14.56;95.42
5283;BME280;15376;48.540;9.268;2023-01-01T12:04:32;97924.09;;;14.84;90.56
5283;BME280;15376;48.540;9.268;2023-01-01T12:07:05;97921.41;;;14.84;90.26
5283;BME280;15376;48.540;9.268;2023-01-01T12:09:55;97918.72;;;14.78;93.03
5283;BME280;15376;48.540;9.268;2023-01-01T12:12:35;97918.69;;;14.71;93.75
5283;BME280;15376;48.540;9.268;2023-01-01T12:15:16;97911.47;;;14.65;94.22
5283;BME280;15376;48.540;9.268;2023-01-01T12:17:46;97915.75;;;14.59;90.09
5283;BME280;15376;48.540;9.268;2023-01-01T12:20:37;97914.59;;;14.75;90.43
5283;BME280;15376;48.540;9.268;2023-01-01T12:23:07;97909.25;;;14.75;87.60
5283;BME280;15376;48.540;9.268;2023-01-01T12:25:43;97913.78;;;14.81;87.19
5283;BME280;15376;48.540;9.268;2023-01-01T12:31:30;97882.06;;;14.65;86.97
5283;BME280;15376;48.540;9.268;2023-01-01T12:36:59;97901.31;;;15.01;84.68
5283;BME280;15376;48.540;9.268;2023-01-01T12:40:11;97893.25;;;14.88;87.91
5283;BME280;15376;48.540;9.268;2023-01-01T12:43:02;97897.00;;;15.00;83.49
5283;BME280;15376;48.540;9.268;2023-01-01T12:50:56;97890.00;;;14.99;87.21
5283;BME280;15376;48.540;9.268;2023-01-01T12:53:49;97902.34;;;15.00;85.27
5283;BME280;15376;48.540;9.268;2023-01-01T12:56:44;97898.59;;;14.88;87.21
5283;BME280;15376;48.540;9.268;2023-01-01T12:59:54;97897.34;;;14.78;87.57
5283;BME280;15376;48.540;9.268;2023-01-01T13:02:03;97903.50;;;14.78;85.85
5283;BME280;15376;48.540;9.268;2023-01-01T13:04:35;97895.69;;;14.77;87.88
5283;BME280;15376;48.540;9.268;2023-01-01T13:07:07;97899.00;;;14.85;86.80
5283;BME280;15376;48.540;9.268;2023-01-01T13:09:38;97892.41;;;14.88;88.08
5283;BME280;15376;48.540;9.268;2023-01-01T13:12:29;97880.50;;;14.90;88.14
5283;BME280;15376;48.540;9.268;2023-01-01T13:14:56;97870.19;;;14.87;88.97
5283;BME280;15376;48.540;9.268;2023-01-01T13:17:26;97881.59;;;15.09;85.08
5283;BME280;15376;48.540;9.268;2023-01-01T13:20:00;97883.44;;;15.09;86.27
5283;BME280;15376;48.540;9.268;2023-01-01T13:22:39;97878.91;;;15.02;85.20
5283;BME280;15376;48.540;9.268;2023-01-01T13:33:29;97884.69;;;15.06;85.74
5283;BME280;15376;48.540;9.268;2023-01-01T13:38:53;97879.06;;;14.94;87.59
5283;BME280;15376;48.540;9.268;2023-01-01T13:43:51;97873.47;;;14.83;91.45
5283;BME280;15376;48.540;9.268;2023-01-01T13:46:21;97874.31;;;14.90;87.63
5283;BME280;15376;48.540;9.268;2023-01-01T14:00:22;97867.88;;;15.39;86.37
5283;BME280;15376;48.540;9.268;2023-01-01T14:02:55;97848.06;;;15.20;87.43
5283;BME280;15376;48.540;9.268;2023-01-01T14:05:30;97866.81;;;15.26;88.20
5283;BME280;15376;48.540;9.268;2023-01-01T14:07:57;97864.34;;;15.38;87.07
5283;BME280;15376;48.540;9.268;2023-01-01T14:10:33;97847.91;;;15.41;86.08
5283;BME280;15376;48.540;9.268;2023-01-01T14:15:33;97853.03;;;15.36;86.05
5283;BME280;15376;48.540;9.268;2023-01-01T14:18:00;97849.97;;;15.52;84.54
5283;BME280;15376;48.540;9.268;2023-01-01T14:20:36;97847.72;;;15.62;83.77
5283;BME280;15376;48.540;9.268;2023-01-01T14:23:09;97832.47;;;15.70;82.41
5283;BME280;15376;48.540;9.268;2023-01-01T14:25:35;97834.94;;;15.64;82.72
5283;BME280;15376;48.540;9.268;2023-01-01T14:28:01;97844.22;;;15.55;84.37
5283;BME280;15376;48.540;9.268;2023-01-01T14:30:30;97830.59;;;15.37;84.12
5283;BME280;15376;48.540;9.268;2023-01-01T14:33:01;97850.34;;;15.36;84.27
5283;BME280;15376;48.540;9.268;2023-01-01T14:35:28;97848.88;;;15.20;85.90
5283;BME280;15376;48.540;9.268;2023-01-01T14:37:54;97837.34;;;15.00;86.00
5283;BME280;15376;48.540;9.268;2023-01-01T14:40:23;97844.72;;;14.98;86.29
5283;BME280;15376;48.540;9.268;2023-01-01T14:43:00;97807.66;;;14.75;85.30
5283;BME280;15376;48.540;9.268;2023-01-01T14:45:26;97848.00;;;14.93;85.94
5283;BME280;15376;48.540;9.268;2023-01-01T14:47:54;97835.38;;;14.61;88.08
5283;BME280;15376;48.540;9.268;2023-01-01T14:50:24;97853.47;;;14.65;88.27
5283;BME280;15376;48.540;9.268;2023-01-01T14:52:53;97856.91;;;14.53;88.69
5283;BME280;15376;48.540;9.268;2023-01-01T14:55:25;97861.03;;;14.55;87.70
5283;BME280;15376;48.540;9.268;2023-01-01T14:57:57;97859.94;;;14.43;88.53